Time;durP1;ratioP1;P1;durP2;ratioP2;P2;SDS_P1;SDS_P2;PMS_P1;PMS_P2;Temp;Humidity;BMP_temperature;BMP_pressure;BME280_temperature;BME280_humidity;BME280_pressure;Samples;Min_cycle;Max_cycle;Signal;HPM_P1;HPM_P2
2022/06/24 00:00:39;;;;;;;6.10;2.05;;;20.70;99.90;;;20.80;100.00;99901.19;4986693;28;20053;-76
2022/06/24 00:03:14;;;;;;;4.85;1.98;;;20.70;99.90;;;20.85;100.00;99913.34;4988267;28;20058;-76
2022/06/24 00:05:41;;;;;;;4.72;1.95;;;20.70;99.90;;;20.97;100.00;99921.28;4972896;28;20898;-76
2022/06/24 00:08:08;;;;;;;5.97;2.22;;;20.60;99.90;;;20.98;100.00;99922.16;4971491;28;20046;-77
2022/06/24 00:10:37;;;;;;;5.55;1.90;;;20.70;99.90;;;20.95;100.00;99941.94;4970106;28;20129;-75
2022/06/24 00:13:07;;;;;;;9.32;2.35;;;20.70;99.90;;;20.95;100.00;99960.66;4985029;28;20038;-76
2022/06/24 00:15:35;;;;;;;;;;;20.60;99.90;;;21.08;100.00;99968.66;4952828;28;20047;-76
2022/06/24 00:18:15;;;;;;;5.25;2.20;;;20.70;99.90;;;21.16;100.00;99973.44;4955544;28;19943;-76
2022/06/24 00:20:50;;;;;;;5.88;2.40;;;20.70;99.90;;;21.16;100.00;99965.41;4967458;28;20054;-76
2022/06/24 00:23:22;;;;;;;5.72;2.10;;;20.80;99.90;;;21.14;100.00;99974.50;4968018;28;20515;-76
2022/06/24 00:25:50;;;;;;;5.60;1.60;;;20.80;99.90;;;21.15;100.00;99974.41;4968195;28;20050;-77
2022/06/24 00:28:23;;;;;;;5.47;1.90;;;20.80;99.90;;;21.21;100.00;99963.22;4968841;28;20516;-76
2022/06/24 00:30:53;;;;;;;7.55;2.00;;;20.90;99.90;;;21.29;100.00;99954.63;4967321;28;20049;-76
2022/06/24 00:33:24;;;;;;;4.72;1.98;;;20.90;99.90;;;21.24;100.00;99944.25;4968038;28;20546;-76
2022/06/24 00:35:56;;;;;;;3.55;2.05;;;20.90;99.90;;;21.29;100.00;99949.25;4971156;28;20054;-76
2022/06/24 00:38:35;;;;;;;4.50;1.80;;;20.90;99.90;;;21.19;100.00;99942.91;4971980;28;20055;-76
2022/06/24 00:41:11;;;;;;;4.75;2.33;;;20.90;99.90;;;21.24;100.00;99933.56;4986592;28;20515;-75
2022/06/24 00:43:49;;;;;;;6.70;1.98;;;20.90;99.90;;;21.25;100.00;99931.75;4955997;28;20430;-76
2022/06/24 00:46:22;;;;;;;9.63;2.08;;;22.20;99.90;;;21.28;100.00;99930.66;4956653;28;20045;-76
2022/06/24 00:48:58;;;;;;;3.95;2.00;;;20.90;99.90;;;21.19;100.00;99941.09;4987116;28;20042;-76
2022/06/24 00:51:37;;;;;;;5.05;1.83;;;20.90;99.90;;;21.15;100.00;99934.28;4987529;28;20053;-76
2022/06/24 00:54:14;;;;;;;5.13;2.10;;;20.90;99.90;;;21.21;100.00;99936.47;4987610;28;20042;-75
2022/06/24 00:56:42;;;;;;;6.25;2.42;;;20.90;99.90;;;21.02;100.00;99936.16;4955894;28;20053;-76
2022/06/24 00:59:12;;;;;;;8.50;3.35;;;20.90;99.90;;;21.06;100.00;99934.97;4987203;28;20046;-77
2022/06/24 01:01:42;;;;;;;5.15;2.08;;;20.90;99.90;;;21.04;100.00;99932.38;4986910;28;20065;-76
2022/06/24 01:04:11;;;;;;;4.80;1.88;;;20.80;99.90;;;21.16;100.00;99935.97;4986719;28;20049;-76
2022/06/24 01:06:42;;;;;;;6.60;2.15;;;20.80;99.90;;;21.16;100.00;99927.97;4983833;28;20086;-76
2022/06/24 01:09:10;;;;;;;5.13;2.33;;;20.90;99.90;;;21.05;100.00;99923.38;4982385;28;20381;-76
2022/06/24 01:11:43;;;;;;;3.88;1.80;;;20.80;99.90;;;21.14;100.00;99934.38;4968188;28;20059;-76
2022/06/24 01:14:11;;;;;;;5.32;2.05;;;20.80;99.90;;;21.16;100.00;99922.59;4967635;28;20571;-76
2022/06/24 01:16:39;;;;;;;4.38;1.60;;;20.80;99.90;;;21.14;100.00;99926.34;4967472;28;20587;-76
2022/06/24 01:19:10;;;;;;;5.47;2.00;;;20.80;99.90;;;21.16;100.00;99925.28;4950976;28;20130;-75
2022/06/24 01:21:45;;;;;;;5.28;2.05;;;20.80;99.90;;;21.22;100.00;99913.22;5002250;28;20053;-76
2022/06/24 01:24:22;;;;;;;5.68;2.55;;;20.80;99.90;;;21.24;100.00;99903.28;4999868;28;20054;-76
2022/06/24 01:26:56;;;;;;;3.38;1.70;;;20.80;99.90;;;21.19;100.00;99897.44;4952565;28;20046;-76
2022/06/24 01:29:24;;;;;;;3.45;1.65;;;20.90;99.90;;;21.11;100.00;99892.66;4958709;28;20038;-76
2022/06/24 01:31:53;;;;;;;4.18;1.75;;;20.80;99.90;;;21.18;100.00;99888.56;4983296;28;20047;-76
2022/06/24 01:34:23;;;;;;;6.70;1.73;;;20.90;99.90;;;21.11;100.00;99889.97;4983521;28;20815;-76
2022/06/24 01:36:50;;;;;;;3.67;1.40;;;20.80;99.90;;;21.05;100.00;99893.97;4980244;28;20499;-76
2022/06/24 01:39:19;;;;;;;5.40;2.10;;;20.90;99.90;;;21.08;100.00;99899.13;4970150;28;20055;-76
2022/06/24 01:41:48;;;;;;;4.20;1.90;;;21.40;99.90;;;20.97;100.00;99897.22;4987164;28;20424;-76
2022/06/24 01:44:15;;;;;;;5.68;2.20;;;20.70;99.90;;;20.91;100.00;99913.75;4986734;28;20517;-76
2022/06/24 01:46:42;;;;;;;3.85;1.70;;;20.70;99.90;;;20.87;100.00;99914.94;4970569;28;20073;-76
2022/06/24 01:49:09;;;;;;;6.82;1.65;;;20.60;99.90;;;20.87;100.00;99922.09;4987330;28;20046;-76
2022/06/24 01:51:42;;;;;;;5.28;1.77;;;20.60;99.90;;;20.74;100.00;99925.66;4956999;28;20050;-76
2022/06/24 01:54:10;;;;;;;5.00;1.92;;;20.50;99.90;;;20.74;100.00;99924.81;4967433;28;20752;-76
2022/06/24 01:56:37;;;;;;;5.57;1.63;;;20.50;99.90;;;20.55;100.00;99902.97;4967853;28;20731;-77
2022/06/24 01:59:12;;;;;;;3.95;2.30;;;20.40;99.90;;;20.67;100.00;99901.19;4953784;28;20051;-77
2022/06/24 02:01:39;;;;;;;4.90;1.88;;;20.30;99.90;;;20.66;100.00;99896.81;4970558;28;20047;-77
2022/06/24 02:04:08;;;;;;;7.30;1.85;;;20.30;99.90;;;20.67;100.00;99895.84;4969225;28;20066;-77
2022/06/24 02:06:35;;;;;;;4.32;1.98;;;20.30;99.90;;;20.68;100.00;99897.59;4931004;28;20043;-78
2022/06/24 02:09:04;;;;;;;4.13;1.55;;;20.30;99.90;;;20.69;100.00;99893.94;4936461;28;20566;-77
2022/06/24 02:14:19;;;;;;;4.78;1.75;;;20.30;99.90;;;20.69;100.00;99872.56;4950010;29;20831;-77
2022/06/24 02:16:47;;;;;;;3.53;1.70;;;20.30;99.90;;;20.75;100.00;99868.53;4934096;29;20145;-77
2022/06/24 02:19:14;;;;;;;5.68;2.25;;;20.40;99.90;;;20.76;100.00;99872.94;4933565;29;20844;-76
2022/06/24 02:21:41;;;;;;;6.65;2.45;;;20.40;99.90;;;20.72;100.00;99862.59;4934453;29;20581;-77
2022/06/24 02:24:08;;;;;;;4.10;1.85;;;20.40;99.90;;;20.69;100.00;99867.22;4934451;29;20063;-78
2022/06/24 02:26:35;;;;;;;4.93;2.00;;;20.40;99.90;;;20.74;100.00;99858.81;4937218;29;20142;-77
2022/06/24 02:29:05;;;;;;;;;;;20.40;99.90;;;20.77;100.00;99863.09;4932843;29;20043;-77
2022/06/24 02:31:32;;;;;;;4.88;2.13;;;20.40;99.90;;;20.73;100.00;99851.78;4949461;29;19934;-77
2022/06/24 02:33:59;;;;;;;4.20;1.70;;;20.40;99.90;;;20.74;100.00;99853.47;4934019;28;20082;-77
2022/06/24 02:36:26;;;;;;;6.38;1.73;;;20.40;99.90;;;20.72;100.00;99855.41;4974175;28;20042;-76
2022/06/24 02:38:53;;;;;;;4.30;1.92;;;20.40;99.90;;;20.61;100.00;99842.88;4989608;28;20480;-77
2022/06/24 02:41:20;;;;;;;4.28;2.05;;;20.40;99.90;;;20.66;100.00;99854.06;4973574;28;20042;-77
2022/06/24 02:43:47;;;;;;;3.35;1.80;;;21.10;99.90;;;20.65;100.00;99854.19;4972813;28;20061;-76
2022/06/24 02:46:18;;;;;;;6.95;1.85;;;20.30;99.90;;;20.60;100.00;99854.53;4989562;28;20054;-75
2022/06/24 02:48:46;;;;;;;8.32;2.17;;;20.30;99.90;;;20.59;100.00;99854.63;4989669;28;20451;-77
2022/06/24 02:51:15;;;;;;;5.45;1.85;;;20.60;99.90;;;20.51;100.00;99861.41;4973924;28;20097;-76
2022/06/24 02:53:43;;;;;;;4.55;2.42;;;20.20;99.90;;;20.43;100.00;99850.41;4989685;28;20046;-77
2022/06/24 02:56:13;;;;;;;4.47;2.15;;;20.20;99.90;;;20.46;100.00;99857.38;4973809;28;20093;-77
2022/06/24 02:58:42;;;;;;;4.07;2.05;;;20.10;99.90;;;20.31;100.00;99849.50;4989850;28;20054;-77
2022/06/24 03:01:10;;;;;;;4.72;2.05;;;20.10;99.90;;;20.31;100.00;99848.66;4989156;28;20219;-77
2022/06/24 03:03:38;;;;;;;6.57;2.40;;;20.10;99.90;;;20.27;100.00;99845.38;4988957;28;20418;-76
2022/06/24 03:06:06;;;;;;;5.40;1.90;;;20.00;99.90;;;20.34;100.00;99843.09;4984207;28;20635;-77
2022/06/24 03:08:33;;;;;;;6.13;2.85;;;20.00;99.90;;;20.35;100.00;99834.94;4969718;28;20055;-77
2022/06/24 03:11:00;;;;;;;5.72;1.70;;;20.00;99.90;;;20.31;100.00;99840.66;4952195;28;20037;-77
2022/06/24 03:13:28;;;;;;;5.03;2.00;;;20.00;99.90;;;20.28;100.00;99836.38;4985715;28;20451;-78
2022/06/24 03:15:55;;;;;;;4.78;2.20;;;20.00;99.90;;;20.26;100.00;99839.16;4971467;28;20054;-77
2022/06/24 03:18:24;;;;;;;4.20;1.85;;;19.90;99.90;;;20.31;100.00;99841.50;4971396;28;20061;-77
2022/06/24 03:20:51;;;;;;;3.83;1.90;;;19.90;99.90;;;20.26;100.00;99846.34;4984851;28;20070;-77
2022/06/24 03:23:18;;;;;;;7.53;2.13;;;20.00;99.90;;;20.27;100.00;99840.84;4973324;28;20058;-77
2022/06/24 03:25:45;;;;;;;5.05;1.98;;;19.90;99.90;;;20.16;100.00;99847.97;4988809;28;20038;-77
2022/06/24 03:28:13;;;;;;;6.10;2.00;;;19.90;99.90;;;20.22;100.00;99842.19;4989868;28;20046;-77
2022/06/24 03:30:40;;;;;;;4.03;1.80;;;20.00;99.90;;;20.26;100.00;99836.47;4987906;28;20543;-78
2022/06/24 03:33:08;;;;;;;7.82;2.45;;;19.90;99.90;;;20.31;100.00;99836.16;4989010;28;20078;-77
2022/06/24 03:35:35;;;;;;;9.85;2.00;;;19.90;99.90;;;20.30;100.00;99839.78;4988675;28;20045;-77
2022/06/24 03:38:03;;;;;;;3.17;2.10;;;19.90;99.90;;;20.23;100.00;99833.22;4988776;28;20054;-77
2022/06/24 03:40:30;;;;;;;5.25;2.15;;;19.90;99.90;;;20.23;100.00;99835.88;4988225;28;20547;-77
2022/06/24 03:42:57;;;;;;;7.75;2.05;;;19.90;99.90;;;20.27;100.00;99838.19;4989205;28;20050;-77
2022/06/24 03:45:24;;;;;;;5.82;2.20;;;19.90;99.90;;;20.22;100.00;99837.69;4971785;28;20046;-78
2022/06/24 03:47:51;;;;;;;3.05;1.80;;;19.90;99.90;;;20.26;100.00;99831.13;4989081;28;20034;-77
2022/06/24 03:50:18;;;;;;;5.18;2.33;;;19.90;99.90;;;20.23;100.00;99830.53;4971489;28;20046;-78
2022/06/24 03:52:46;;;;;;;8.02;2.28;;;19.90;99.90;;;20.25;100.00;99829.44;4972500;28;20054;-78
2022/06/24 03:55:13;;;;;;;5.90;2.20;;;19.90;99.90;;;20.21;100.00;99827.97;4972088;28;20125;-77
2022/06/24 03:57:40;;;;;;;4.10;2.45;;;19.90;99.90;;;20.21;100.00;99824.44;4956647;28;20042;-77
2022/06/24 04:00:08;;;;;;;4.07;2.70;;;19.90;99.90;;;20.17;100.00;99829.16;4987988;28;20065;-77
2022/06/24 04:02:38;;;;;;;6.25;3.08;;;19.90;99.90;;;20.09;100.00;99831.53;4986592;28;20125;-77
2022/06/24 04:05:14;;;;;;;4.10;2.22;;;19.80;99.90;;;20.07;100.00;99831.66;4988584;28;20058;-77
2022/06/24 04:07:41;;;;;;;5.40;2.57;;;19.80;99.90;;;20.11;100.00;99834.94;4956432;28;20047;-75
2022/06/24 04:10:09;;;;;;;4.65;2.90;;;19.80;99.90;;;20.06;100.00;99827.28;4988389;28;20050;-77
2022/06/24 04:12:36;;;;;;;4.60;2.67;;;19.80;99.90;;;20.05;100.00;99828.22;4987797;28;20057;-77
2022/06/24 04:15:19;;;;;;;4.57;2.60;;;19.80;99.90;;;20.10;100.00;99823.41;4969699;28;20507;-77
2022/06/24 04:17:48;;;;;;;6.55;3.08;;;19.80;99.90;;;20.08;100.00;99824.47;4970999;28;20134;-78
2022/06/24 04:20:17;;;;;;;4.85;2.78;;;19.80;99.90;;;20.06;100.00;99832.63;4952511;28;20500;-77
2022/06/24 04:22:45;;;;;;;5.05;3.28;;;19.30;99.90;;;20.11;100.00;99848.28;4967738;28;20415;-78
2022/06/24 04:25:12;;;;;;;6.97;3.35;;;19.80;99.90;;;20.11;100.00;99843.81;4968799;28;20504;-77
2022/06/24 04:27:40;;;;;;;6.75;3.63;;;19.80;99.90;;;20.10;100.00;99833.22;4952637;28;20053;-78
2022/06/24 04:30:10;;;;;;;6.78;3.10;;;19.80;99.90;;;20.15;100.00;99839.09;4968279;28;20051;-78
2022/06/24 04:32:38;;;;;;;8.32;3.33;;;19.80;99.90;;;20.16;100.00;99838.16;4952652;28;20264;-78
2022/06/24 04:35:06;;;;;;;2.47;1.80;;;19.70;99.90;;;20.19;100.00;99840.59;4952955;28;20477;-78
2022/06/24 04:37:36;;;;;;;2.75;1.85;;;19.80;99.90;;;20.10;100.00;99847.44;4985037;28;20046;-77
2022/06/24 04:40:06;;;;;;;7.40;2.35;;;19.90;99.90;;;20.10;100.00;99844.78;4988156;28;20463;-77
2022/06/24 04:42:33;;;;;;;;;;;19.80;99.90;;;20.03;100.00;99848.00;4972397;28;20559;-78
2022/06/24 04:45:02;;;;;;;8.77;2.53;;;19.80;99.90;;;20.03;100.00;99843.50;5004304;28;19941;-78
2022/06/24 04:47:29;;;;;;;5.25;2.08;;;19.80;99.90;;;20.06;100.00;99843.31;4987657;28;20038;-78
2022/06/24 04:49:56;;;;;;;5.07;2.30;;;19.80;99.90;;;20.06;100.00;99850.44;4987689;28;20065;-77
2022/06/24 04:52:23;;;;;;;7.85;2.58;;;19.80;99.90;;;20.03;100.00;99843.50;4987631;28;20403;-78
2022/06/24 04:54:50;;;;;;;4.82;2.67;;;19.80;99.90;;;20.07;100.00;99844.13;4987271;28;20053;-77
2022/06/24 04:57:17;;;;;;;6.05;2.78;;;19.80;99.90;;;20.03;100.00;99840.81;4988756;28;20129;-77
2022/06/24 04:59:44;;;;;;;8.45;2.85;;;19.80;99.90;;;20.10;100.00;99839.44;4970788;28;20047;-77
2022/06/24 05:02:11;;;;;;;12.70;3.45;;;19.80;99.90;;;20.18;100.00;99838.88;4986956;28;20053;-77
2022/06/24 05:04:39;;;;;;;7.38;2.75;;;19.80;99.90;;;20.10;100.00;99835.91;4987215;28;20565;-77
2022/06/24 05:07:06;;;;;;;6.03;2.65;;;19.90;99.90;;;20.16;100.00;99835.47;4971641;28;20042;-78
2022/06/24 05:09:34;;;;;;;6.70;3.08;;;19.90;99.90;;;20.20;100.00;99830.72;4970779;28;20046;-78
2022/06/24 05:12:01;;;;;;;5.68;2.67;;;19.90;99.90;;;20.21;100.00;99835.09;4987878;28;20097;-77
2022/06/24 05:14:33;;;;;;;5.82;2.72;;;19.90;99.90;;;20.29;100.00;99838.09;4988085;28;20050;-78
2022/06/24 05:17:00;;;;;;;7.82;2.90;;;20.00;99.90;;;20.32;100.00;99835.19;4971456;28;20069;-78
2022/06/24 05:19:28;;;;;;;7.80;3.60;;;20.00;99.90;;;20.46;100.00;99834.19;4970675;28;20054;-77
2022/06/24 05:21:56;;;;;;;6.10;3.22;;;20.10;99.90;;;20.49;100.00;99838.44;4987246;28;20043;-79
2022/06/24 05:24:23;;;;;;;7.10;3.80;;;20.20;99.90;;;20.45;100.00;99848.50;4987198;28;20153;-78
2022/06/24 05:26:50;;;;;;;7.05;3.10;;;20.20;99.90;;;20.53;100.00;99842.59;4989058;28;20053;-80
2022/06/24 05:29:17;;;;;;;5.95;3.22;;;20.20;99.90;;;20.48;100.00;99842.94;4977154;28;20038;-80
2022/06/24 05:31:45;;;;;;;7.90;3.95;;;20.30;99.90;;;20.58;100.00;99848.44;4955338;28;20054;-79
2022/06/24 05:34:13;;;;;;;9.23;3.70;;;20.30;99.90;;;20.59;100.00;99847.47;4989594;28;20050;-80
2022/06/24 05:36:41;;;;;;;11.93;4.35;;;20.30;99.90;;;20.50;100.00;99858.84;4966427;28;20133;-81
2022/06/24 05:39:09;;;;;;;7.20;4.18;;;20.40;99.90;;;20.52;100.00;99848.88;4956302;28;20090;-81
2022/06/24 05:41:40;;;;;;;8.95;4.20;;;20.30;99.90;;;20.55;100.00;99848.69;4958470;28;20050;-80
2022/06/24 05:44:08;;;;;;;9.00;4.05;;;20.30;99.90;;;20.52;100.00;99849.75;4976678;28;20054;-84
2022/06/24 05:46:36;;;;;;;10.38;4.80;;;20.30;99.90;;;20.59;100.00;99851.94;4983056;28;20451;-83
2022/06/24 05:49:38;;;;;;;10.35;3.80;;;20.30;99.90;;;20.74;100.00;99849.97;4974659;28;20057;-82
2022/06/24 05:55:02;;;;;;;6.57;4.50;;;20.30;99.90;;;20.72;100.00;99850.06;4955777;28;20058;-81
2022/06/24 05:55:09;;;;;;;9.13;4.30;;;20.40;99.90;;;20.67;100.00;99850.41;4972574;28;20098;-81
2022/06/24 05:57:36;;;;;;;11.25;5.00;;;20.40;99.90;;;20.69;100.00;99835.13;4957348;28;20047;-81
2022/06/24 06:00:04;;;;;;;8.95;4.82;;;20.50;99.90;;;20.72;100.00;99849.22;4956126;28;20055;-81
2022/06/24 06:02:34;;;;;;;8.95;5.95;;;20.40;99.90;;;20.71;100.00;99853.72;4973200;28;20536;-81
2022/06/24 06:05:03;;;;;;;12.13;4.82;;;20.40;99.90;;;20.77;100.00;99847.94;4956493;28;20125;-80
2022/06/24 06:07:30;;;;;;;7.95;4.20;;;20.50;99.90;;;20.83;100.00;99846.63;4956959;28;20439;-79
2022/06/24 06:09:57;;;;;;;6.85;4.20;;;20.50;99.90;;;20.76;100.00;99843.56;4961817;28;20047;-80
2022/06/24 06:13:19;;;;;;;7.10;4.00;;;20.50;99.90;;;20.89;100.00;99846.16;4963887;28;20053;-84
2022/06/24 06:22:48;;;;;;;10.82;4.03;;;19.90;99.90;;;21.00;100.00;99842.66;4985090;28;20050;-83
2022/06/24 06:25:15;;;;;;;6.45;3.63;;;20.70;99.90;;;20.97;100.00;99838.41;4993724;28;20145;-77
2022/06/24 06:27:42;;;;;;;8.80;3.95;;;20.70;99.90;;;21.01;100.00;99844.38;4987100;28;20085;-78
2022/06/24 06:30:11;;;;;;;8.63;4.40;;;20.80;99.90;;;21.12;100.00;99851.56;4970766;28;20142;-78
2022/06/24 06:32:37;;;;;;;6.72;3.40;;;20.80;99.90;;;21.13;100.00;99839.91;4972079;28;20042;-78
2022/06/24 06:35:05;;;;;;;6.28;4.05;;;20.90;99.90;;;21.01;100.00;99847.03;4978694;28;20051;-77
2022/06/24 06:37:33;;;;;;;9.98;4.07;;;20.90;99.90;;;21.13;100.00;99850.59;4978341;28;20469;-77
2022/06/24 06:40:01;;;;;;;6.57;4.20;;;20.90;99.90;;;21.20;100.00;99845.63;4970013;28;20548;-77
2022/06/24 06:42:29;;;;;;;7.70;3.78;;;20.90;99.90;;;21.34;100.00;99844.56;4969744;28;20611;-75
2022/06/24 06:44:56;;;;;;;7.80;4.25;;;20.90;99.90;;;21.30;100.00;99848.44;4969294;28;20098;-76
2022/06/24 06:47:23;;;;;;;10.45;4.90;;;21.00;99.90;;;21.34;100.00;99844.56;4969180;28;20046;-76
2022/06/24 06:49:50;;;;;;;5.85;3.25;;;21.00;99.90;;;21.47;100.00;99842.66;4969009;28;20039;-76
2022/06/24 06:52:17;;;;;;;6.35;3.53;;;21.10;99.90;;;21.53;100.00;99844.84;4970799;28;20400;-78
2022/06/24 06:54:44;;;;;;;5.97;3.20;;;21.20;99.90;;;21.60;100.00;99844.34;4954234;28;20043;-78
2022/06/24 06:57:11;;;;;;;5.32;2.88;;;21.30;99.90;;;21.53;100.00;99834.13;4971478;28;20053;-78
2022/06/24 06:59:38;;;;;;;5.57;2.50;;;21.30;99.90;;;21.67;100.00;99834.91;4969382;28;20043;-75
2022/06/24 07:02:06;;;;;;;4.07;2.53;;;21.30;99.90;;;21.63;100.00;99838.75;4969724;28;20070;-76
2022/06/24 07:04:33;;;;;;;5.97;2.42;;;21.40;99.90;;;21.63;100.00;99844.94;4980212;28;20042;-74
2022/06/24 07:07:00;;;;;;;6.57;2.90;;;21.40;99.90;;;21.69;100.00;99840.97;4980076;28;20047;-76
2022/06/24 07:09:27;;;;;;;5.18;2.78;;;21.40;99.90;;;21.66;100.00;99843.91;4969359;28;20069;-76
2022/06/24 07:11:54;;;;;;;6.50;2.60;;;21.40;99.90;;;21.69;100.00;99846.34;4976497;28;20042;-76
2022/06/24 07:14:21;;;;;;;7.43;2.65;;;21.40;99.90;;;21.69;100.00;99838.28;4990296;28;20050;-75
2022/06/24 07:16:48;;;;;;;5.20;2.70;;;21.40;99.90;;;21.68;100.00;99834.75;4988604;28;20054;-76
2022/06/24 07:19:16;;;;;;;8.57;3.38;;;21.40;99.90;;;21.81;100.00;99850.72;4988750;28;20471;-75
2022/06/24 07:21:43;;;;;;;4.95;2.42;;;21.50;99.90;;;21.90;100.00;99835.75;4971875;28;20141;-75
2022/06/24 07:24:10;;;;;;;5.10;2.10;;;21.60;99.90;;;21.98;100.00;99844.97;4970054;28;20412;-75
2022/06/24 07:26:37;;;;;;;4.68;2.40;;;21.60;99.90;;;22.03;100.00;99837.44;4969322;28;20061;-75
2022/06/24 07:29:11;;;;;;;7.15;2.97;;;21.70;99.90;;;21.97;100.00;99836.09;4984127;28;20026;-76
2022/06/24 07:31:38;;;;;;;3.83;2.90;;;21.70;99.90;;;22.13;100.00;99816.09;4987979;28;20054;-75
2022/06/24 07:34:06;;;;;;;3.72;2.55;;;21.80;99.90;;;22.22;100.00;99826.03;4957492;28;20536;-75
2022/06/24 07:36:33;;;;;;;5.55;2.63;;;21.80;99.90;;;22.18;100.00;99821.94;4979064;28;20070;-75
2022/06/24 07:39:01;;;;;;;5.35;2.20;;;21.90;99.90;;;22.21;100.00;99827.03;4971386;28;20166;-75
2022/06/24 07:41:28;;;;;;;3.25;2.13;;;22.00;99.90;;;22.24;100.00;99822.28;4970696;28;20054;-75
2022/06/24 07:43:55;;;;;;;5.20;2.42;;;22.00;99.90;;;22.29;100.00;99829.06;4971079;28;20073;-76
2022/06/24 07:46:22;;;;;;;4.38;2.65;;;22.10;99.90;;;22.34;100.00;99827.72;4969702;28;20074;-75
2022/06/24 07:48:49;;;;;;;7.53;2.55;;;22.10;99.90;;;22.42;100.00;99828.94;4952848;28;20043;-75
2022/06/24 07:51:17;;;;;;;4.50;2.08;;;22.10;99.90;;;22.50;100.00;99826.50;4969453;28;20063;-76
2022/06/24 07:53:46;;;;;;;3.90;2.20;;;22.20;99.80;;;22.67;100.00;99825.09;4948193;29;20568;-76
2022/06/24 07:59:03;;;;;;;6.78;2.30;;;22.40;99.40;;;22.65;100.00;99817.16;4948388;29;20431;-75
2022/06/24 08:01:30;;;;;;;6.43;2.40;;;21.10;99.20;;;22.73;100.00;99821.88;4949043;28;20639;-75
2022/06/24 08:03:58;;;;;;;6.68;2.67;;;22.40;99.70;;;22.76;100.00;99828.81;4948303;29;20469;-76
2022/06/24 08:06:28;;;;;;;7.80;2.53;;;22.40;99.50;;;22.80;100.00;99835.63;4956699;28;20494;-75
2022/06/24 08:08:55;;;;;;;5.50;2.72;;;22.00;99.50;;;22.86;100.00;99820.84;4967395;28;20692;-76
2022/06/24 08:11:22;;;;;;;5.43;2.40;;;22.50;99.50;;;22.77;100.00;99830.53;4936648;28;20134;-77
2022/06/24 08:13:49;;;;;;;3.15;2.65;;;22.60;99.40;;;22.93;100.00;99817.53;4938921;28;20059;-76
2022/06/24 08:16:16;;;;;;;7.53;2.72;;;22.70;99.20;;;23.16;100.00;99822.72;4953409;28;20452;-77
2022/06/24 08:18:43;;;;;;;5.95;2.15;;;22.70;99.40;;;23.21;100.00;99820.53;4937424;28;20054;-77
2022/06/24 08:21:10;;;;;;;4.90;2.35;;;22.80;99.20;;;23.20;100.00;99818.81;4946823;28;20522;-77
2022/06/24 08:23:37;;;;;;;5.22;2.47;;;22.90;99.20;;;23.28;100.00;99820.88;4945060;28;20078;-77
2022/06/24 08:26:05;;;;;;;3.90;1.98;;;22.90;99.20;;;23.07;100.00;99812.81;4984590;28;20042;-76
2022/06/24 08:28:33;;;;;;;6.72;3.35;;;22.90;98.50;;;23.14;100.00;99805.09;4953878;28;20038;-78
2022/06/24 08:31:01;;;;;;;3.42;2.50;;;22.90;98.90;;;23.03;100.00;99801.47;4952727;28;20420;-78
2022/06/24 08:33:31;;;;;;;4.93;2.15;;;22.80;98.70;;;23.16;100.00;99795.91;4970370;28;20121;-76
2022/06/24 08:35:59;;;;;;;3.60;2.25;;;22.80;98.80;;;23.31;100.00;99783.03;4973926;28;20042;-77
2022/06/24 08:38:26;;;;;;;4.40;1.98;;;22.90;98.60;;;23.30;100.00;99781.34;4988766;28;20060;-76
2022/06/24 08:40:54;;;;;;;6.15;2.22;;;22.90;97.80;;;23.31;100.00;99776.81;4987965;28;20046;-77
2022/06/24 08:43:21;;;;;;;3.72;2.25;;;23.00;98.30;;;23.35;100.00;99779.09;5004935;28;20058;-77
2022/06/24 08:45:49;;;;;;;5.70;2.30;;;23.00;98.10;;;23.58;100.00;99775.38;4988607;28;20108;-77
2022/06/24 08:48:17;;;;;;;4.43;1.55;;;23.10;98.10;;;23.76;100.00;99772.91;4988063;28;20073;-77
2022/06/24 08:50:47;;;;;;;5.10;1.77;;;23.30;97.80;;;23.65;100.00;99771.16;4987948;28;20571;-76
2022/06/24 08:53:17;;;;;;;3.97;2.22;;;23.30;97.00;;;23.81;100.00;99767.13;5003770;28;20065;-76
2022/06/24 08:55:48;;;;;;;5.60;2.10;;;23.40;97.40;;;23.96;100.00;99759.50;4988589;28;20043;-76
2022/06/24 08:58:16;;;;;;;4.90;2.50;;;23.50;97.70;;;24.00;100.00;99763.59;4988387;28;20074;-78
2022/06/24 09:00:44;;;;;;;6.47;2.45;;;23.60;97.60;;;23.94;100.00;99765.88;4988730;28;20046;-79
2022/06/24 09:03:12;;;;;;;5.53;2.00;;;23.60;97.10;;;23.92;100.00;99761.59;4990164;28;20133;-76
2022/06/24 09:05:40;;;;;;;4.10;1.75;;;23.70;96.80;;;23.92;100.00;99750.88;4988496;28;20121;-77
2022/06/24 09:08:15;;;;;;;7.10;1.63;;;23.60;96.80;;;23.90;100.00;99761.75;4988450;28;20050;-78
2022/06/24 09:11:06;;;;;;;3.13;1.65;;;23.60;96.10;;;24.01;100.00;99760.78;4988104;28;20088;-77
2022/06/24 09:13:56;;;;;;;4.05;2.25;;;23.60;96.40;;;24.15;100.00;99758.72;4988275;28;20066;-77
2022/06/24 09:16:25;;;;;;;1.95;1.65;;;23.70;96.60;;;24.24;100.00;99754.34;4987911;28;20053;-77
2022/06/24 09:18:57;;;;;;;2.33;1.77;;;23.70;95.20;;;24.32;100.00;99752.63;4987320;28;20046;-77
2022/06/24 09:21:31;;;;;;;2.28;1.65;;;23.90;95.20;;;24.29;100.00;99757.44;4987065;28;20046;-77
2022/06/24 09:24:02;;;;;;;3.72;1.67;;;23.90;94.30;;;24.52;100.00;99741.88;4987980;28;20050;-77
2022/06/24 09:26:43;;;;;;;3.78;1.65;;;24.00;95.20;;;24.43;100.00;99742.72;4971562;28;20468;-77
2022/06/24 09:29:16;;;;;;;4.80;2.08;;;24.40;95.30;;;24.54;100.00;99739.88;4987692;28;20520;-77
2022/06/24 09:31:43;;;;;;;3.40;1.98;;;24.10;95.30;;;24.57;100.00;99744.13;4987572;28;20042;-77
2022/06/24 09:34:14;;;;;;;4.00;1.88;;;24.20;94.50;;;24.50;100.00;99752.75;4987487;28;20427;-77
2022/06/24 09:36:45;;;;;;;2.65;1.70;;;24.30;94.00;;;24.68;100.00;99748.50;4968761;28;20497;-77
2022/06/24 09:39:14;;;;;;;2.97;1.80;;;24.30;94.20;;;24.82;100.00;99744.53;4936693;28;20058;-77
2022/06/24 09:41:55;;;;;;;2.45;1.38;;;24.40;94.60;;;24.86;100.00;99752.19;4968270;28;20154;-77
2022/06/24 09:44:24;;;;;;;2.70;1.35;;;24.50;94.60;;;24.92;100.00;99742.69;4952530;28;20138;-77
2022/06/24 09:47:03;;;;;;;4.78;1.80;;;24.50;94.80;;;25.16;100.00;99754.81;4968343;28;20506;-77
2022/06/24 09:49:31;;;;;;;4.53;1.83;;;24.60;94.80;;;25.01;100.00;99754.41;4952665;28;20047;-77
2022/06/24 09:51:58;;;;;;;3.30;1.60;;;24.70;94.40;;;24.67;100.00;99754.88;4968520;28;20118;-77
2022/06/24 09:54:26;;;;;;;2.60;1.70;;;24.70;94.20;;;24.89;100.00;99751.88;4968050;28;20053;-77
2022/06/24 09:56:54;;;;;;;4.07;1.90;;;24.60;94.50;;;24.67;100.00;99757.56;4967490;28;20089;-76
2022/06/24 10:02:21;;;;;;;2.22;1.80;;;24.50;94.60;;;24.89;100.00;99746.50;4967641;28;20047;-77
2022/06/24 10:04:52;;;;;;;2.50;1.83;;;24.50;94.80;;;25.06;100.00;99736.00;4967709;28;20058;-77
2022/06/24 10:07:25;;;;;;;2.53;1.83;;;24.60;95.00;;;25.22;100.00;99748.81;4983028;28;20447;-77
2022/06/24 10:10:06;;;;;;;;;;;24.80;94.60;;;25.30;100.00;99750.78;4988016;28;20137;-76
2022/06/24 10:12:40;;;;;;;4.50;1.70;;;24.90;94.30;;;25.17;100.00;99740.34;4987428;28;20004;-76
2022/06/24 10:15:07;;;;;;;2.15;1.52;;;24.90;94.30;;;25.24;100.00;99746.00;4971604;28;20447;-77
2022/06/24 10:17:36;;;;;;;6.53;2.15;;;24.90;94.40;;;25.31;100.00;99742.56;4971076;28;20043;-77
2022/06/24 10:20:05;;;;;;;4.18;1.73;;;24.90;94.00;;;25.49;100.00;99737.25;4986627;28;20079;-77
2022/06/24 10:22:58;;;;;;;2.03;1.40;;;25.00;93.90;;;25.67;100.00;99744.53;4954803;28;20047;-76
2022/06/24 10:25:47;;;;;;;3.63;1.63;;;25.10;93.80;;;25.64;100.00;99742.13;4953002;28;20117;-76
2022/06/24 10:28:15;;;;;;;3.60;1.65;;;25.20;93.40;;;25.65;100.00;99738.44;4972009;28;20109;-77
2022/06/24 10:30:48;;;;;;;2.83;1.30;;;25.30;93.30;;;25.62;100.00;99736.94;4970110;28;20255;-76
2022/06/24 10:33:21;;;;;;;2.65;1.90;;;25.30;93.20;;;25.66;100.00;99742.00;4974114;28;20050;-77
2022/06/24 10:36:05;;;;;;;5.13;1.88;;;25.30;93.20;;;25.61;100.00;99732.53;4976218;28;20133;-78
2022/06/24 10:38:41;;;;;;;3.97;1.92;;;25.30;93.30;;;25.44;100.00;99744.03;4976287;28;20062;-77